Time;durP1;ratioP1;P1;durP2;ratioP2;P2;SDS_P1;SDS_P2;PMS_P1;PMS_P2;Temp;Humidity;BMP_temperature;BMP_pressure;BME280_temperature;BME280_humidity;BME280_pressure;Samples;Min_cycle;Max_cycle;Signal;HPM_P1;HPM_P2
2023/02/16 00:01:45;;;;;;;19.03;14.20;;;4.80;99.90;;;;;;5020052;28;20430;-66
2023/02/16 00:04:18;;;;;;;15.13;12.43;;;4.70;99.90;;;;;;5005445;28;20495;-66
2023/02/16 00:06:44;;;;;;;18.50;13.03;;;4.70;99.90;;;;;;5014081;28;20187;-66
2023/02/16 00:09:10;;;;;;;24.33;12.83;;;4.70;99.90;;;;;;5012252;28;20500;-66
2023/02/16 00:14:22;;;;;;;15.10;12.17;;;4.60;99.90;;;;;;5005651;28;20668;-66
2023/02/16 00:16:48;;;;;;;17.80;13.50;;;4.50;99.90;;;;;;4995371;28;20982;-66
2023/02/16 00:19:36;;;;;;;16.13;12.20;;;4.50;99.90;;;;;;5010256;28;20491;-66
2023/02/16 00:22:02;;;;;;;16.20;12.67;;;4.50;99.90;;;;;;5007798;28;20480;-66
2023/02/16 00:24:29;;;;;;;20.53;14.83;;;4.40;99.90;;;;;;5005040;28;20967;-66
2023/02/16 00:26:56;;;;;;;20.03;12.57;;;4.30;99.90;;;;;;5016683;28;20457;-66
2023/02/16 00:29:26;;;;;;;17.13;14.30;;;4.20;99.90;;;;;;5015603;28;20454;-66
2023/02/16 00:31:53;;;;;;;19.23;14.50;;;4.10;99.90;;;;;;4999760;28;20876;-66
2023/02/16 00:34:21;;;;;;;18.40;14.40;;;4.00;99.90;;;;;;5013233;28;20441;-66
2023/02/16 00:36:47;;;;;;;28.50;13.43;;;4.10;99.90;;;;;;5010468;28;20935;-66
2023/02/16 00:39:12;;;;;;;20.00;14.10;;;4.00;99.90;;;;;;5007191;28;20458;-66
2023/02/16 00:41:50;;;;;;;21.60;13.47;;;4.10;99.90;;;;;;5002610;28;20190;-66
2023/02/16 00:44:36;;;;;;;16.50;12.73;;;4.20;99.90;;;;;;4998977;28;20533;-66
2023/02/16 00:47:15;;;;;;;18.97;13.07;;;4.20;99.90;;;;;;5008751;28;20833;-66
2023/02/16 00:49:41;;;;;;;19.30;14.27;;;4.20;99.90;;;;;;4993092;28;20896;-66
2023/02/16 00:52:30;;;;;;;17.43;13.20;;;4.20;99.90;;;;;;5005823;28;20556;-66
2023/02/16 00:54:56;;;;;;;16.80;12.30;;;4.20;99.90;;;;;;4997960;28;20192;-66
2023/02/16 00:57:22;;;;;;;17.70;12.67;;;4.10;99.90;;;;;;4993526;28;20959;-66
2023/02/16 00:59:55;;;;;;;21.80;14.00;;;4.00;99.90;;;;;;4995167;28;20473;-66
2023/02/16 01:02:21;;;;;;;18.57;13.40;;;4.00;99.90;;;;;;5016420;28;20473;-66
2023/02/16 01:04:46;;;;;;;19.23;13.30;;;3.90;99.90;;;;;;5022667;28;20444;-66
2023/02/16 01:12:41;;;;;;;13.83;11.43;;;3.70;99.90;;;;;;5009492;28;20517;-65
2023/02/16 01:15:13;;;;;;;18.60;13.00;;;3.80;99.90;;;;;;5010343;28;20439;-66
2023/02/16 01:17:38;;;;;;;18.77;13.93;;;3.80;99.90;;;;;;5004025;28;20179;-66
2023/02/16 01:20:20;;;;;;;15.37;13.17;;;3.80;99.90;;;;;;5003091;28;20454;-66
2023/02/16 01:22:46;;;;;;;20.00;14.03;;;3.90;99.90;;;;;;4999966;28;20186;-66
2023/02/16 01:25:12;;;;;;;16.50;12.63;;;3.90;99.90;;;;;;4999015;28;20442;-66
2023/02/16 01:27:38;;;;;;;19.30;14.33;;;3.90;99.90;;;;;;5013201;28;20203;-66
2023/02/16 01:30:05;;;;;;;19.40;12.93;;;3.90;99.90;;;;;;5005063;28;20469;-66
2023/02/16 01:32:31;;;;;;;12.90;11.47;;;3.90;99.90;;;;;;5003258;28;20207;-66
2023/02/16 01:34:56;;;;;;;15.43;13.13;;;3.80;99.90;;;;;;5010441;28;20550;-66
2023/02/16 01:37:22;;;;;;;20.80;14.83;;;3.80;99.90;;;;;;4998741;28;20178;-66
2023/02/16 01:39:48;;;;;;;23.03;14.50;;;3.70;99.90;;;;;;5001292;28;20238;-66
2023/02/16 01:42:22;;;;;;;25.13;14.77;;;3.60;99.90;;;;;;5017992;28;20425;-66
2023/02/16 01:44:53;;;;;;;18.60;14.37;;;3.60;99.90;;;;;;5006431;28;20440;-66
2023/02/16 01:47:28;;;;;;;23.30;15.27;;;3.60;99.90;;;;;;5007187;28;20435;-66
2023/02/16 01:49:54;;;;;;;18.70;15.23;;;3.60;99.90;;;;;;5011666;28;20468;-66
2023/02/16 01:52:36;;;;;;;19.47;14.60;;;3.60;99.90;;;;;;5007927;28;20462;-66
2023/02/16 01:55:17;;;;;;;20.77;14.37;;;3.50;99.90;;;;;;5008111;28;20178;-66
2023/02/16 01:57:53;;;;;;;23.10;13.30;;;3.60;99.90;;;;;;5012578;28;20809;-66
2023/02/16 02:00:48;;;;;;;21.53;14.00;;;3.60;99.90;;;;;;5001586;28;20469;-66
2023/02/16 02:06:31;;;;;;;17.37;12.97;;;3.50;99.90;;;;;;5004620;28;21021;-66
2023/02/16 02:09:12;;;;;;;16.63;11.70;;;3.50;99.90;;;;;;4995771;28;20524;-66
2023/02/16 02:11:54;;;;;;;16.33;10.93;;;3.50;99.90;;;;;;4996893;28;21031;-66
2023/02/16 02:14:31;;;;;;;15.90;12.03;;;3.50;99.90;;;;;;5005409;28;20927;-66
2023/02/16 02:16:59;;;;;;;16.23;10.87;;;3.50;99.90;;;;;;5012248;28;20785;-66
2023/02/16 02:19:25;;;;;;;18.50;12.27;;;3.40;99.90;;;;;;5013515;28;20872;-66
2023/02/16 02:25:28;;;;;;;17.37;12.73;;;3.30;99.90;;;;;;5012866;28;20276;-66
2023/02/16 02:28:06;;;;;;;18.93;11.23;;;3.30;99.90;;;;;;5003597;28;20429;-66
2023/02/16 02:30:48;;;;;;;13.70;10.77;;;3.30;99.90;;;;;;5004303;28;20452;-66
2023/02/16 02:33:33;;;;;;;15.10;11.00;;;3.20;99.90;;;;;;5012600;28;20488;-66
2023/02/16 02:36:18;;;;;;;15.07;10.60;;;3.20;99.90;;;;;;5013337;28;20433;-66
2023/02/16 02:39:05;;;;;;;16.43;10.73;;;3.20;99.90;;;;;;4996184;28;20537;-66
2023/02/16 02:44:49;;;;;;;18.10;11.47;;;3.20;99.90;;;;;;5002311;28;20496;-66
2023/02/16 02:47:14;;;;;;;15.33;12.77;;;3.30;99.90;;;;;;4996541;28;20437;-66
2023/02/16 02:49:41;;;;;;;18.73;11.83;;;3.30;99.90;;;;;;4991329;28;20957;-66
2023/02/16 02:52:07;;;;;;;15.63;11.90;;;3.30;99.90;;;;;;4996918;28;20194;-66
2023/02/16 03:03:51;;;;;;;12.80;10.27;;;3.40;99.90;;;;;;5005680;28;20432;-66
2023/02/16 03:06:25;;;;;;;15.17;11.57;;;3.40;99.90;;;;;;5004976;28;20447;-66
2023/02/16 03:08:56;;;;;;;15.07;13.23;;;3.30;99.90;;;;;;5005359;28;20489;-67
2023/02/16 03:14:20;;;;;;;16.23;10.60;;;3.30;99.90;;;;;;4995583;28;20469;-66
2023/02/16 03:30:51;;;;;;;14.90;11.47;;;3.10;99.90;;;;;;4995454;28;20496;-66
2023/02/16 03:33:17;;;;;;;15.00;12.50;;;3.20;99.90;;;;;;5003398;28;20830;-66
2023/02/16 03:35:44;;;;;;;14.30;11.20;;;3.20;99.90;;;;;;5017037;28;20437;-66
2023/02/16 03:38:10;;;;;;;14.70;11.23;;;3.20;99.90;;;;;;5013469;28;20944;-66
2023/02/16 03:40:39;;;;;;;16.33;11.20;;;3.20;99.90;;;;;;5014367;28;20524;-66
2023/02/16 03:43:07;;;;;;;16.83;10.93;;;3.20;99.90;;;;;;5014365;28;20248;-65
2023/02/16 03:45:35;;;;;;;16.07;11.90;;;3.20;99.90;;;;;;5015298;28;20448;-66
2023/02/16 03:48:00;;;;;;;16.97;11.53;;;3.20;99.90;;;;;;5009067;28;20950;-66
2023/02/16 03:50:26;;;;;;;16.17;10.57;;;3.20;99.90;;;;;;5003118;28;20544;-66
2023/02/16 03:53:05;;;;;;;13.07;11.53;;;3.20;99.90;;;;;;4997525;28;20240;-66
2023/02/16 03:55:33;;;;;;;17.37;12.40;;;3.20;99.90;;;;;;4996785;28;20431;-66
2023/02/16 03:57:59;;;;;;;15.90;11.13;;;3.30;99.90;;;;;;4995024;28;20438;-66
2023/02/16 04:00:25;;;;;;;11.57;10.37;;;3.30;99.90;;;;;;4999179;28;20885;-66
2023/02/16 04:02:51;;;;;;;12.57;10.80;;;3.40;99.90;;;;;;4996394;28;20538;-66
2023/02/16 04:05:16;;;;;;;13.73;11.00;;;3.40;99.90;;;;;;5003124;28;20817;-66
2023/02/16 04:07:42;;;;;;;17.23;11.40;;;3.40;99.90;;;;;;5009837;28;20279;-66
2023/02/16 04:10:08;;;;;;;15.67;10.07;;;3.40;99.90;;;;;;4995379;28;20845;-66
2023/02/16 04:12:36;;;;;;;14.83;11.07;;;3.50;99.90;;;;;;5005303;28;20213;-66
2023/02/16 04:15:05;;;;;;;14.33;11.07;;;3.40;99.90;;;;;;5001336;28;20190;-66
2023/02/16 04:17:30;;;;;;;13.13;10.67;;;3.30;99.90;;;;;;5012115;28;20515;-66
2023/02/16 04:19:56;;;;;;;11.83;10.63;;;3.30;99.90;;;;;;5013575;28;20461;-66
2023/02/16 04:22:21;;;;;;;14.80;11.00;;;3.30;99.90;;;;;;5000999;28;20275;-66
2023/02/16 04:24:47;;;;;;;13.83;11.63;;;3.20;99.90;;;;;;4993415;28;20192;-66
2023/02/16 04:27:12;;;;;;;14.50;11.47;;;3.20;99.90;;;;;;5003047;28;20179;-65
2023/02/16 04:29:38;;;;;;;14.00;12.00;;;3.20;99.90;;;;;;5012778;28;20233;-66
2023/02/16 04:32:03;;;;;;;11.97;10.50;;;3.10;99.90;;;;;;5001735;28;20217;-66
2023/02/16 04:34:29;;;;;;;14.33;11.60;;;3.10;99.90;;;;;;5007141;28;20202;-66
2023/02/16 04:36:54;;;;;;;15.20;11.30;;;3.10;99.90;;;;;;5006347;28;20187;-66
2023/02/16 04:39:20;;;;;;;11.50;10.00;;;3.10;99.90;;;;;;5013673;28;20209;-66
2023/02/16 04:41:46;;;;;;;14.00;11.00;;;3.10;99.90;;;;;;5013389;28;20274;-66
2023/02/16 04:44:12;;;;;;;13.20;10.07;;;3.10;99.90;;;;;;5014877;28;20939;-66
2023/02/16 04:46:37;;;;;;;19.60;10.90;;;3.10;99.90;;;;;;5029102;28;20182;-66
2023/02/16 04:49:03;;;;;;;14.70;9.80;;;3.10;99.90;;;;;;4994002;28;20456;-65
2023/02/16 04:51:28;;;;;;;14.93;10.30;;;3.00;99.90;;;;;;5001807;28;20782;-66
2023/02/16 04:53:54;;;;;;;14.00;12.03;;;3.10;99.90;;;;;;5004364;28;20179;-66
2023/02/16 04:56:19;;;;;;;15.30;12.23;;;3.10;99.90;;;;;;5019339;28;20189;-66
2023/02/16 04:58:45;;;;;;;13.17;10.53;;;3.10;99.90;;;;;;5026040;23;20214;-67
2023/02/16 05:01:18;;;;;;;12.20;10.97;;;3.10;99.90;;;;;;5013592;28;20174;-68
2023/02/16 05:03:44;;;;;;;10.60;9.50;;;3.10;99.90;;;;;;5005855;28;20171;-67
2023/02/16 05:06:09;;;;;;;13.70;10.47;;;3.10;99.90;;;;;;5010321;28;20432;-67
2023/02/16 05:08:35;;;;;;;14.20;10.80;;;3.00;99.90;;;;;;5028179;28;20182;-67
2023/02/16 05:16:28;;;;;;;19.47;13.97;;;3.00;99.90;;;;;;5010686;28;20867;-67
2023/02/16 05:18:54;;;;;;;15.50;10.47;;;2.90;99.90;;;;;;5008764;28;20462;-67
2023/02/16 05:21:31;;;;;;;13.73;10.67;;;2.90;99.90;;;;;;5009880;28;20225;-67
2023/02/16 05:23:58;;;;;;;15.97;10.67;;;2.90;99.90;;;;;;5009800;28;20178;-67
2023/02/16 05:26:24;;;;;;;15.73;11.20;;;2.90;99.90;;;;;;5006765;28;20771;-67
2023/02/16 05:28:50;;;;;;;13.53;10.77;;;3.00;99.90;;;;;;5010602;28;20891;-67
2023/02/16 05:31:15;;;;;;;16.27;10.97;;;3.10;99.90;;;;;;5010439;28;20448;-67
2023/02/16 05:33:41;;;;;;;16.73;10.23;;;3.10;99.90;;;;;;5007402;28;20190;-67
2023/02/16 05:36:06;;;;;;;16.23;11.87;;;3.10;99.90;;;;;;5005509;28;20163;-67
2023/02/16 05:38:32;;;;;;;14.70;10.20;;;3.00;99.90;;;;;;5001855;28;20194;-67
2023/02/16 05:40:58;;;;;;;12.33;9.90;;;3.00;99.90;;;;;;5009340;28;20751;-67
2023/02/16 05:43:24;;;;;;;15.60;11.33;;;3.00;99.90;;;;;;5002270;28;20289;-67
2023/02/16 05:45:50;;;;;;;15.33;10.90;;;3.10;99.90;;;;;;5006608;28;20469;-67
2023/02/16 05:48:15;;;;;;;15.93;11.40;;;3.10;99.90;;;;;;5007727;28;20653;-67
2023/02/16 05:50:41;;;;;;;16.43;11.23;;;3.10;99.90;;;;;;5009293;28;20841;-67
2023/02/16 05:53:06;;;;;;;16.90;10.90;;;3.10;99.90;;;;;;5006212;28;20198;-67
2023/02/16 05:55:32;;;;;;;15.80;11.83;;;3.10;99.90;;;;;;5008085;28;20167;-67
2023/02/16 05:57:57;;;;;;;17.30;11.27;;;3.00;99.90;;;;;;5005803;28;20214;-67
2023/02/16 06:00:23;;;;;;;14.13;9.67;;;3.00;99.90;;;;;;5008209;28;20268;-67
2023/02/16 06:02:48;;;;;;;15.50;10.53;;;3.00;99.90;;;;;;5007021;28;20184;-67
2023/02/16 06:05:14;;;;;;;15.87;12.10;;;3.00;99.90;;;;;;5008842;28;20262;-67
2023/02/16 06:07:39;;;;;;;15.70;11.43;;;3.00;99.90;;;;;;5007695;28;20187;-67
2023/02/16 06:10:06;;;;;;;21.10;14.83;;;3.00;99.90;;;;;;5002581;28;20191;-67
2023/02/16 06:12:33;;;;;;;17.27;12.33;;;3.00;99.90;;;;;;5016580;28;20684;-67
2023/02/16 06:14:59;;;;;;;18.40;12.37;;;2.90;99.90;;;;;;5011592;28;20425;-67
2023/02/16 06:17:24;;;;;;;12.80;11.07;;;2.90;99.90;;;;;;5004800;28;20449;-67
2023/02/16 06:19:50;;;;;;;12.63;11.17;;;2.90;99.90;;;;;;5001911;28;20545;-67
2023/02/16 06:22:15;;;;;;;15.67;10.50;;;2.90;99.90;;;;;;5010496;28;20181;-67
2023/02/16 06:24:41;;;;;;;18.73;13.03;;;2.90;99.90;;;;;;5006852;28;20218;-68
2023/02/16 06:27:07;;;;;;;23.47;12.97;;;2.80;99.90;;;;;;5010487;28;20191;-67
2023/02/16 06:29:32;;;;;;;14.37;12.47;;;2.70;99.90;;;;;;5010648;28;20237;-67
2023/02/16 06:31:58;;;;;;;17.50;11.80;;;2.70;99.90;;;;;;5011016;28;20191;-68
2023/02/16 06:34:23;;;;;;;18.60;11.80;;;2.70;99.90;;;;;;5010857;28;20175;-67
2023/02/16 06:36:49;;;;;;;15.50;11.30;;;2.70;99.90;;;;;;5007163;28;20190;-67
2023/02/16 06:39:14;;;;;;;15.93;11.33;;;2.60;99.90;;;;;;5008929;28;20203;-67
2023/02/16 06:41:40;;;;;;;23.77;13.07;;;2.70;99.90;;;;;;5011379;28;20185;-67
2023/02/16 06:44:12;;;;;;;20.10;12.93;;;2.60;99.90;;;;;;5009160;28;20178;-71
2023/02/16 06:46:38;;;;;;;25.40;12.63;;;2.70;99.90;;;;;;5001843;28;20180;-67
2023/02/16 06:49:04;;;;;;;15.30;11.53;;;2.70;99.90;;;;;;5005160;28;20461;-68
2023/02/16 06:51:30;;;;;;;16.13;12.37;;;2.80;99.90;;;;;;5008100;28;20441;-70
2023/02/16 06:53:56;;;;;;;15.73;11.10;;;2.90;99.90;;;;;;5002974;28;20466;-67
2023/02/16 06:56:22;;;;;;;17.50;12.50;;;2.90;99.90;;;;;;5000868;28;20952;-67
2023/02/16 06:58:48;;;;;;;16.60;12.77;;;2.90;99.90;;;;;;5005760;28;20454;-66
2023/02/16 07:01:13;;;;;;;17.40;13.00;;;2.90;99.90;;;;;;5010389;28;20804;-65
2023/02/16 07:03:39;;;;;;;22.37;12.20;;;2.90;99.90;;;;;;5003277;28;20193;-65
2023/02/16 07:06:05;;;;;;;19.80;15.30;;;2.90;99.90;;;;;;5005527;28;20217;-65
2023/02/16 07:08:30;;;;;;;16.60;13.37;;;3.00;99.90;;;;;;5003981;28;20665;-65
2023/02/16 07:10:56;;;;;;;20.43;12.97;;;3.00;99.90;;;;;;5008475;28;20425;-65
2023/02/16 07:13:21;;;;;;;17.50;12.87;;;3.20;99.90;;;;;;5015578;28;20281;-65
2023/02/16 07:15:47;;;;;;;17.83;13.90;;;3.40;99.90;;;;;;5015289;28;20199;-65
2023/02/16 07:18:13;;;;;;;15.80;11.33;;;3.60;99.90;;;;;;5012282;28;20210;-65
2023/02/16 07:20:38;;;;;;;18.27;12.33;;;3.90;99.90;;;;;;5005885;28;20202;-66
2023/02/16 07:23:04;;;;;;;17.57;12.00;;;4.10;99.90;;;;;;5015152;28;20171;-66
2023/02/16 07:25:29;;;;;;;18.77;12.20;;;4.40;99.90;;;;;;5014879;28;20734;-66
2023/02/16 07:27:55;;;;;;;15.90;12.53;;;4.60;99.90;;;;;;4978955;28;20211;-64
2023/02/16 07:30:21;;;;;;;22.83;14.50;;;4.90;99.90;;;;;;4982249;28;20207;-65
2023/02/16 07:32:46;;;;;;;20.67;14.53;;;5.00;99.90;;;;;;4996750;28;20669;-65
2023/02/16 07:35:12;;;;;;;17.23;15.10;;;5.10;99.90;;;;;;4994448;28;20481;-66
2023/02/16 07:37:38;;;;;;;23.37;14.60;;;5.40;99.90;;;;;;4992866;28;20245;-66
2023/02/16 07:40:04;;;;;;;17.87;13.47;;;5.60;99.90;;;;;;4994579;28;20191;-66
2023/02/16 07:42:31;;;;;;;19.27;14.00;;;5.80;99.90;;;;;;4995174;28;20612;-65
2023/02/16 07:44:57;;;;;;;18.30;14.30;;;6.10;99.90;;;;;;5013156;28;20536;-66
2023/02/16 07:47:23;;;;;;;19.47;14.50;;;6.30;99.90;;;;;;5003508;28;20506;-66
2023/02/16 07:49:48;;;;;;;25.17;15.80;;;6.60;99.90;;;;;;4994312;28;20218;-67
2023/02/16 07:52:14;;;;;;;23.13;14.27;;;7.00;99.90;;;;;;4993432;28;20229;-66
2023/02/16 07:54:39;;;;;;;22.03;13.87;;;7.40;99.90;;;;;;4995029;28;20221;-66
2023/02/16 07:57:05;;;;;;;23.90;15.90;;;7.70;99.90;;;;;;4996635;28;20644;-67
2023/02/16 07:59:31;;;;;;;16.40;14.47;;;7.90;99.90;;;;;;5013634;28;20199;-67
2023/02/16 08:01:56;;;;;;;24.50;18.90;;;8.00;99.90;;;;;;5014577;28;20257;-66
2023/02/16 08:04:22;;;;;;;19.33;17.30;;;8.10;99.90;;;;;;5014506;28;20664;-67
2023/02/16 08:06:47;;;;;;;22.03;17.43;;;8.40;99.90;;;;;;5010059;28;20197;-66
2023/02/16 08:09:14;;;;;;;22.93;18.67;;;8.60;99.90;;;;;;5013532;28;20195;-66
2023/02/16 08:11:40;;;;;;;19.83;15.27;;;9.00;99.90;;;;;;5014367;28;20206;-67
2023/02/16 08:14:05;;;;;;;17.17;13.73;;;9.40;99.90;;;;;;5014215;28;21022;-66
2023/02/16 08:16:31;;;;;;;17.37;14.30;;;9.80;99.90;;;;;;5012742;28;20633;-67
2023/02/16 08:18:58;;;;;;;18.50;15.20;;;10.30;99.90;;;;;;5010211;28;20571;-67
2023/02/16 08:21:28;;;;;;;18.07;14.90;;;10.70;99.90;;;;;;5013442;28;20209;-67
2023/02/16 08:23:57;;;;;;;21.33;16.00;;;11.00;99.90;;;;;;5013935;28;20417;-66
2023/02/16 08:26:25;;;;;;;20.97;16.37;;;11.20;99.90;;;;;;5013984;28;20501;-66
2023/02/16 08:28:51;;;;;;;18.83;15.30;;;11.40;99.90;;;;;;4990272;28;20853;-66
2023/02/16 08:31:19;;;;;;;17.83;15.30;;;11.70;99.90;;;;;;4994348;28;20894;-66
2023/02/16 08:33:46;;;;;;;21.60;15.47;;;12.30;99.90;;;;;;4994020;28;20504;-66
2023/02/16 08:36:19;;;;;;;19.63;14.90;;;12.90;99.90;;;;;;4989317;28;20466;-66
2023/02/16 08:38:45;;;;;;;21.40;15.73;;;13.30;99.90;;;;;;5001813;28;20445;-67
2023/02/16 08:41:11;;;;;;;21.03;15.00;;;13.80;99.90;;;;;;5013498;28;20509;-66
2023/02/16 08:43:36;;;;;;;22.20;15.10;;;14.70;97.20;;;;;;5013388;28;20521;-66
2023/02/16 08:46:02;;;;;;;24.40;15.90;;;15.50;93.40;;;;;;5013108;28;20178;-66
2023/02/16 08:48:34;;;;;;;25.57;15.77;;;16.10;92.10;;;;;;5009205;28;20194;-67
2023/02/16 08:51:00;;;;;;;18.90;15.87;;;16.70;89.50;;;;;;5013469;28;20170;-66
2023/02/16 08:53:26;;;;;;;19.93;14.60;;;17.50;84.00;;;;;;5013300;28;20469;-67
2023/02/16 08:55:56;;;;;;;19.60;16.63;;;17.80;80.90;;;;;;5012063;28;20934;-67
2023/02/16 08:58:22;;;;;;;18.70;16.70;;;18.70;77.40;;;;;;5006722;28;20786;-67
2023/02/16 09:00:48;;;;;;;17.63;14.20;;;19.40;71.80;;;;;;5009818;28;20457;-67
2023/02/16 09:03:15;;;;;;;14.53;12.17;;;19.70;68.70;;;;;;5013041;28;20426;-67
2023/02/16 09:05:41;;;;;;;15.87;14.17;;;19.00;65.90;;;;;;5008602;28;20421;-66
2023/02/16 09:08:06;;;;;;;13.27;11.93;;;17.90;68.90;;;;;;4996941;28;20834;-66
2023/02/16 09:10:32;;;;;;;13.33;11.90;;;16.60;69.70;;;;;;4992835;28;20200;-67
2023/02/16 09:12:57;;;;;;;13.87;11.70;;;17.00;69.30;;;;;;5012102;28;20561;-66
2023/02/16 09:15:23;;;;;;;14.67;12.33;;;17.10;68.20;;;;;;5012918;28;20245;-66
2023/02/16 09:17:48;;;;;;;12.60;11.43;;;16.50;67.00;;;;;;5008052;28;20175;-66
2023/02/16 09:20:14;;;;;;;12.03;10.77;;;16.00;68.20;;;;;;5011702;28;20277;-67
2023/02/16 09:22:43;;;;;;;14.47;10.70;;;16.60;68.40;;;;;;4994777;28;20559;-66
2023/02/16 09:25:10;;;;;;;12.10;10.67;;;16.90;66.40;;;;;;5012416;28;20199;-67
2023/02/16 09:27:35;;;;;;;11.87;10.00;;;17.70;65.60;;;;;;5002561;28;21286;-67
2023/02/16 09:30:01;;;;;;;10.77;9.10;;;17.70;62.70;;;;;;4992962;28;20470;-67
2023/02/16 09:32:28;;;;;;;14.80;12.30;;;18.00;63.30;;;;;;4991918;28;20203;-66
2023/02/16 09:34:54;;;;;;;12.07;10.20;;;18.20;61.90;;;;;;4992672;28;20218;-67
2023/02/16 09:37:20;;;;;;;11.40;10.20;;;18.70;59.00;;;;;;4997856;28;20426;-66
2023/02/16 09:39:46;;;;;;;18.97;10.00;;;18.90;58.50;;;;;;5011223;28;20627;-67
2023/02/16 09:42:20;;;;;;;11.47;10.27;;;19.30;57.40;;;;;;5011792;28;20175;-66
2023/02/16 09:45:08;;;;;;;12.23;9.70;;;18.80;57.40;;;;;;5012306;28;20453;-66
2023/02/16 09:47:38;;;;;;;13.93;10.23;;;18.70;57.70;;;;;;5008681;28;20429;-67
2023/02/16 09:50:18;;;;;;;12.10;10.53;;;18.30;57.20;;;;;;5011571;28;20513;-67
2023/02/16 09:52:52;;;;;;;11.00;9.97;;;18.60;57.60;;;;;;5011694;28;20454;-67
2023/02/16 09:55:21;;;;;;;12.97;10.67;;;19.70;55.60;;;;;;5012159;28;20420;-67
2023/02/16 09:57:58;;;;;;;12.43;8.60;;;19.30;54.20;;;;;;5008420;28;20848;-66
2023/02/16 10:00:33;;;;;;;15.20;9.30;;;19.00;55.10;;;;;;5001464;28;20458;-67
2023/02/16 10:03:20;;;;;;;10.83;9.20;;;19.10;54.40;;;;;;4992602;28;20837;-66
2023/02/16 10:05:57;;;;;;;9.80;8.10;;;19.20;53.70;;;;;;4992414;28;20481;-65
2023/02/16 10:09:01;;;;;;;9.43;8.53;;;19.70;52.80;;;;;;5001401;28;20455;-67
2023/02/16 10:11:45;;;;;;;10.97;8.60;;;20.80;51.80;;;;;;5010694;28;20433;-68
2023/02/16 10:14:30;;;;;;;15.00;8.80;;;21.80;49.40;;;;;;5011585;28;20422;-67
2023/02/16 10:17:07;;;;;;;9.30;8.40;;;21.30;48.80;;;;;;5004760;28;20484;-67
2023/02/16 10:19:44;;;;;;;10.27;9.27;;;21.10;49.00;;;;;;4998397;28;21214;-68
2023/02/16 10:22:19;;;;;;;15.50;11.40;;;21.60;48.50;;;;;;5010929;28;20488;-69
2023/02/16 10:25:04;;;;;;;9.63;8.67;;;23.00;46.90;;;;;;5012270;28;20785;-67
2023/02/16 10:27:39;;;;;;;9.47;8.40;;;21.80;46.20;;;;;;4998751;28;20423;-68
2023/02/16 10:30:16;;;;;;;11.47;8.20;;;22.40;47.10;;;;;;4991784;28;20950;-69
2023/02/16 10:32:56;;;;;;;9.43;7.53;;;22.80;45.50;;;;;;4987822;28;21311;-69
2023/02/16 10:35:33;;;;;;;8.27;7.57;;;23.00;45.80;;;;;;5010430;28;20433;-70
2023/02/16 10:38:32;;;;;;;11.43;7.10;;;23.50;44.00;;;;;;4995983;28;20834;-69
2023/02/16 10:41:21;;;;;;;10.73;8.77;;;24.00;42.90;;;;;;4975839;28;20445;-68
2023/02/16 10:43:54;;;;;;;7.80;7.10;;;23.50;42.60;;;;;;4993484;28;20800;-68
2023/02/16 10:46:28;;;;;;;7.83;7.00;;;24.10;41.20;;;;;;4996145;28;20418;-69
2023/02/16 10:48:55;;;;;;;11.00;8.50;;;23.80;41.50;;;;;;5010003;28;20445;-69
2023/02/16 10:51:26;;;;;;;12.27;8.33;;;24.30;41.40;;;;;;5010898;28;20461;-69
2023/02/16 10:53:58;;;;;;;11.67;7.23;;;24.50;41.20;;;;;;4995850;28;20612;-69
2023/02/16 10:56:35;;;;;;;7.70;7.00;;;25.70;36.90;;;;;;4995679;28;20916;-70
2023/02/16 10:59:04;;;;;;;8.70;7.67;;;25.20;36.50;;;;;;5015367;23;20457;-68
2023/02/16 11:01:43;;;;;;;8.50;7.40;;;25.00;36.20;;;;;;4975742;28;20427;-68
2023/02/16 11:04:36;;;;;;;7.47;6.87;;;25.80;35.30;;;;;;4976311;28;20478;-68
2023/02/16 11:07:07;;;;;;;6.70;6.20;;;26.10;35.10;;;;;;4973105;28;20439;-68
2023/02/16 11:09:34;;;;;;;8.60;7.77;;;26.30;34.60;;;;;;4974173;28;20450;-66
2023/02/16 11:12:01;;;;;;;7.93;6.60;;;25.80;34.80;;;;;;4975997;28;20841;-67
2023/02/16 11:14:29;;;;;;;6.77;6.17;;;26.20;33.60;;;;;;4976250;28;20791;-68
2023/02/16 11:17:22;;;;;;;7.20;6.60;;;26.80;33.70;;;;;;4972820;28;20466;-68
2023/02/16 11:20:04;;;;;;;5.77;5.27;;;26.80;32.70;;;;;;4973503;28;20454;-67
2023/02/16 11:22:31;;;;;;;9.30;8.40;;;25.40;33.50;;;;;;4973171;28;20805;-68
2023/02/16 11:25:26;;;;;;;8.87;7.23;;;25.30;34.10;;;;;;4975763;28;20419;-68
2023/02/16 11:27:58;;;;;;;7.17;5.73;;;27.90;35.10;;;;;;4972304;28;20427;-67
2023/02/16 11:30:28;;;;;;;7.33;6.63;;;27.40;33.40;;;;;;4974735;28;20448;-67
2023/02/16 11:32:55;;;;;;;12.30;6.20;;;27.80;34.20;;;;;;4975418;28;20458;-69
2023/02/16 11:35:21;;;;;;;7.10;6.40;;;28.90;33.60;;;;;;4975521;28;20954;-70
2023/02/16 11:37:47;;;;;;;6.53;5.50;;;29.20;33.10;;;;;;4972193;28;20432;-69
2023/02/16 11:40:23;;;;;;;7.27;6.57;;;29.70;32.00;;;;;;4974889;28;20624;-69
2023/02/16 11:42:54;;;;;;;8.00;7.20;;;29.70;32.20;;;;;;4974992;28;20188;-68
2023/02/16 11:45:35;;;;;;;7.70;6.30;;;30.60;32.40;;;;;;4975618;28;20442;-70
2023/02/16 11:48:03;;;;;;;6.33;5.83;;;30.50;31.00;;;;;;4972074;28;20940;-70
2023/02/16 11:50:33;;;;;;;7.80;6.17;;;30.50;31.20;;;;;;4974686;28;21012;-68
2023/02/16 11:53:23;;;;;;;6.87;6.10;;;29.00;30.80;;;;;;4975362;28;20490;-70
2023/02/16 11:55:49;;;;;;;8.97;7.10;;;30.70;30.00;;;;;;4974001;28;20925;-70
2023/02/16 11:58:21;;;;;;;8.20;6.80;;;29.00;29.80;;;;;;4971009;28;20427;-70
2023/02/16 12:01:30;;;;;;;8.70;7.50;;;28.20;30.20;;;;;;4974953;28;20459;-70
2023/02/16 12:04:40;;;;;;;8.37;7.57;;;27.80;30.80;;;;;;4954352;29;21019;-70
2023/02/16 12:07:21;;;;;;;6.90;6.20;;;29.60;30.20;;;;;;4969939;28;20497;-70
2023/02/16 12:10:11;;;;;;;6.97;6.43;;;29.70;30.00;;;;;;4973806;28;20455;-70
2023/02/16 12:13:02;;;;;;;7.00;6.40;;;29.80;28.60;;;;;;4975202;28;20416;-69
2023/02/16 12:16:11;;;;;;;6.10;5.60;;;29.20;29.30;;;;;;4975126;28;20420;-70
2023/02/16 12:18:49;;;;;;;6.53;5.83;;;29.60;29.40;;;;;;4971100;28;20427;-71
2023/02/16 12:21:44;;;;;;;6.33;5.83;;;30.50;29.40;;;;;;4975244;28;20430;-71
2023/02/16 12:24:25;;;;;;;7.40;6.60;;;31.00;28.50;;;;;;4975030;28;20495;-71
2023/02/16 12:27:02;;;;;;;6.37;5.77;;;31.10;29.00;;;;;;4972027;28;20502;-70
2023/02/16 12:29:43;;;;;;;5.90;5.50;;;31.40;28.50;;;;;;4973620;28;20963;-70
2023/02/16 12:32:31;;;;;;;6.33;5.00;;;30.30;28.40;;;;;;4974943;28;20423;-70
2023/02/16 12:35:34;;;;;;;6.70;6.10;;;29.20;29.30;;;;;;4974864;28;20430;-69
2023/02/16 12:38:16;;;;;;;5.63;5.13;;;28.80;29.50;;;;;;4971237;28;20885;-69
2023/02/16 12:41:16;;;;;;;5.53;5.13;;;27.50;30.20;;;;;;4974667;28;20435;-69
2023/02/16 12:43:51;;;;;;;4.90;4.50;;;26.20;31.20;;;;;;4974628;28;20498;-69
2023/02/16 12:46:38;;;;;;;5.90;5.30;;;27.30;30.80;;;;;;4974665;28;20461;-70
2023/02/16 12:49:24;;;;;;;5.80;4.90;;;28.60;30.30;;;;;;4972539;28;20793;-69
2023/02/16 12:51:59;;;;;;;5.33;4.60;;;29.20;29.80;;;;;;4974231;28;20412;-69
2023/02/16 12:54:39;;;;;;;6.20;5.03;;;27.10;30.80;;;;;;4974630;28;20446;-69
2023/02/16 12:57:13;;;;;;;7.30;5.10;;;26.40;31.50;;;;;;4971483;28;20420;-69
2023/02/16 13:00:08;;;;;;;4.97;4.47;;;25.60;32.50;;;;;;4973043;28;20455;-69
2023/02/16 13:02:51;;;;;;;5.53;5.00;;;25.60;32.80;;;;;;4974311;28;20878;-69
2023/02/16 13:05:25;;;;;;;6.07;4.30;;;25.80;32.80;;;;;;4974291;28;20490;-69
2023/02/16 13:07:56;;;;;;;5.87;5.20;;;25.90;32.70;;;;;;4970735;28;20431;-70
2023/02/16 13:10:50;;;;;;;4.87;4.47;;;27.90;32.10;;;;;;4973396;28;20451;-70
2023/02/16 13:13:22;;;;;;;6.13;5.63;;;29.30;30.00;;;;;;4974249;28;20442;-70
2023/02/16 13:15:55;;;;;;;5.17;4.77;;;28.40;29.90;;;;;;4974189;28;20509;-70
2023/02/16 13:18:22;;;;;;;6.80;6.10;;;29.00;30.50;;;;;;4969933;28;20427;-69
2023/02/16 13:20:52;;;;;;;6.30;5.70;;;27.50;29.90;;;;;;4973987;28;20929;-70
2023/02/16 13:23:30;;;;;;;5.83;5.27;;;26.10;31.40;;;;;;4973332;28;20468;-69
2023/02/16 13:26:11;;;;;;;6.37;5.77;;;25.30;32.40;;;;;;4973791;28;20418;-69
2023/02/16 13:29:00;;;;;;;8.50;7.03;;;24.60;33.50;;;;;;4969624;28;20470;-70
2023/02/16 13:31:52;;;;;;;8.77;6.80;;;24.20;33.70;;;;;;4965694;28;20438;-69
2023/02/16 13:34:46;;;;;;;8.33;6.40;;;24.10;34.90;;;;;;4954222;29;20420;-69
2023/02/16 13:37:37;;;;;;;5.50;4.83;;;23.20;35.10;;;;;;4963613;28;20428;-69
2023/02/16 13:40:26;;;;;;;5.03;4.00;;;23.60;35.30;;;;;;4972101;28;20440;-69
2023/02/16 13:43:19;;;;;;;7.37;5.70;;;24.50;34.40;;;;;;4973579;28;20542;-69
2023/02/16 13:45:47;;;;;;;6.80;4.17;;;24.80;34.10;;;;;;4972868;28;20426;-68
2023/02/16 13:48:22;;;;;;;5.70;4.27;;;25.40;33.80;;;;;;4969166;28;20809;-67
2023/02/16 13:50:59;;;;;;;7.20;6.07;;;25.50;33.60;;;;;;4973253;28;20489;-68